Time;durP1;ratioP1;P1;durP2;ratioP2;P2;SDS_P1;SDS_P2;PMS_P1;PMS_P2;Temp;Humidity;BMP_temperature;BMP_pressure;BME280_temperature;BME280_humidity;BME280_pressure;Samples;Min_cycle;Max_cycle;Signal;HPM_P1;HPM_P2
2023/01/04 00:02:04;;;;;;;32.90;14.17;;;;;;;;;;5010301;28;20032;-81
2023/01/04 00:04:29;;;;;;;29.40;13.77;;;;;;;;;;5022556;28;20034;-79
2023/01/04 00:06:55;;;;;;;30.17;14.53;;;;;;;;;;5015067;28;20021;-83
2023/01/04 00:09:21;;;;;;;27.90;12.97;;;;;;;;;;5011182;28;20018;-83
2023/01/04 00:11:46;;;;;;;25.70;12.60;;;;;;;;;;5009502;28;20049;-82
2023/01/04 00:14:13;;;;;;;28.40;14.70;;;;;;;;;;5011790;28;20167;-81
2023/01/04 00:16:38;;;;;;;29.87;14.00;;;;;;;;;;5009310;28;20044;-75
2023/01/04 00:19:04;;;;;;;34.03;13.83;;;;;;;;;;5009220;28;20022;-82
2023/01/04 00:21:30;;;;;;;26.53;13.37;;;;;;;;;;5009980;28;20057;-80
2023/01/04 00:23:58;;;;;;;36.13;14.97;;;;;;;;;;5008883;28;20453;-83
2023/01/04 00:26:29;;;;;;;30.10;14.33;;;;;;;;;;5008982;28;20032;-83
2023/01/04 00:29:04;;;;;;;30.97;15.60;;;;;;;;;;5010345;28;20030;-82
2023/01/04 00:31:30;;;;;;;26.47;13.10;;;;;;;;;;5010584;28;20057;-82
2023/01/04 00:33:58;;;;;;;28.00;12.47;;;;;;;;;;5008789;28;20030;-81
2023/01/04 00:36:24;;;;;;;21.67;12.10;;;;;;;;;;5010636;28;20028;-82
2023/01/04 00:39:13;;;;;;;31.83;13.67;;;;;;;;;;5027384;28;20021;-82
2023/01/04 00:41:50;;;;;;;31.93;13.63;;;;;;;;;;5028738;28;20049;-82
2023/01/04 00:44:16;;;;;;;23.03;13.63;;;;;;;;;;5030297;28;20032;-80
2023/01/04 00:46:43;;;;;;;27.23;13.50;;;;;;;;;;5028373;28;20716;-81
2023/01/04 00:49:10;;;;;;;24.33;11.40;;;;;;;;;;5028946;28;20486;-83
2023/01/04 00:51:37;;;;;;;26.70;12.20;;;;;;;;;;5028738;28;20356;-82
2023/01/04 00:54:04;;;;;;;25.13;12.40;;;;;;;;;;5028711;28;20028;-81
2023/01/04 00:56:31;;;;;;;27.10;11.40;;;;;;;;;;5029547;28;20095;-79
2023/01/04 00:58:58;;;;;;;24.07;11.20;;;;;;;;;;5028543;28;20093;-82
2023/01/04 01:01:25;;;;;;;24.07;11.60;;;;;;;;;;5029165;28;20513;-82
2023/01/04 01:03:55;;;;;;;23.20;11.80;;;;;;;;;;5029689;28;20033;-78
2023/01/04 01:06:22;;;;;;;19.30;10.90;;;;;;;;;;5030838;28;20085;-80
2023/01/04 01:08:48;;;;;;;26.23;11.53;;;;;;;;;;5029082;28;20074;-81
2023/01/04 01:11:13;;;;;;;22.47;11.57;;;;;;;;;;5029506;28;20028;-82
2023/01/04 01:13:39;;;;;;;24.43;10.80;;;;;;;;;;5029134;28;20576;-82
2023/01/04 01:16:07;;;;;;;24.87;11.87;;;;;;;;;;5030508;28;20041;-82
2023/01/04 01:18:34;;;;;;;23.83;11.37;;;;;;;;;;5030641;28;20092;-83
2023/01/04 01:21:03;;;;;;;27.60;11.67;;;;;;;;;;5039374;28;20036;-78
2023/01/04 01:23:28;;;;;;;23.30;11.07;;;;;;;;;;5042449;28;20026;-83
2023/01/04 01:25:58;;;;;;;20.90;11.47;;;;;;;;;;5039253;28;20076;-80
2023/01/04 01:28:23;;;;;;;22.27;10.53;;;;;;;;;;5028727;28;20148;-83
2023/01/04 01:30:49;;;;;;;23.93;12.00;;;;;;;;;;5027547;28;20108;-82
2023/01/04 01:33:14;;;;;;;22.17;10.73;;;;;;;;;;5028863;28;20123;-84
2023/01/04 01:35:40;;;;;;;30.90;13.13;;;;;;;;;;5028409;28;20033;-82
2023/01/04 01:38:05;;;;;;;24.07;11.33;;;;;;;;;;5017051;28;20018;-83
2023/01/04 01:40:31;;;;;;;29.70;12.30;;;;;;;;;;5008047;28;20133;-83
2023/01/04 01:42:56;;;;;;;21.00;10.97;;;;;;;;;;5009408;28;20026;-82
2023/01/04 01:45:31;;;;;;;24.13;11.87;;;;;;;;;;5008608;28;20028;-82
2023/01/04 01:48:03;;;;;;;26.07;11.00;;;;;;;;;;5010536;28;20104;-82
2023/01/04 01:50:37;;;;;;;22.93;11.37;;;;;;;;;;5010934;28;20028;-80
2023/01/04 01:53:05;;;;;;;26.30;12.97;;;;;;;;;;5009787;28;20037;-83
2023/01/04 01:55:32;;;;;;;20.30;11.03;;;;;;;;;;5009506;28;20066;-81
2023/01/04 01:57:59;;;;;;;22.33;10.83;;;;;;;;;;5011390;28;20026;-81
2023/01/04 02:00:25;;;;;;;27.43;11.87;;;;;;;;;;5010012;28;20116;-82
2023/01/04 02:03:04;;;;;;;25.43;11.80;;;;;;;;;;5019760;28;20018;-79
2023/01/04 02:05:31;;;;;;;20.33;11.13;;;;;;;;;;5013433;28;20085;-81
2023/01/04 02:07:57;;;;;;;21.17;11.43;;;;;;;;;;5008562;28;20026;-81
2023/01/04 02:10:23;;;;;;;22.97;10.80;;;;;;;;;;5013281;28;20033;-80
2023/01/04 02:12:50;;;;;;;22.03;10.33;;;;;;;;;;5011723;28;20026;-82
2023/01/04 02:15:16;;;;;;;21.43;9.93;;;;;;;;;;5011953;28;20140;-82
2023/01/04 02:17:53;;;;;;;18.20;11.40;;;;;;;;;;5011624;28;20447;-79
2023/01/04 02:20:37;;;;;;;23.53;11.47;;;;;;;;;;5013944;28;20017;-81
2023/01/04 02:23:20;;;;;;;21.60;11.87;;;;;;;;;;5014713;28;20036;-82
2023/01/04 02:26:09;;;;;;;25.03;11.47;;;;;;;;;;5023941;28;20026;-75
2023/01/04 02:28:59;;;;;;;28.97;12.03;;;;;;;;;;5025129;28;20026;-81
2023/01/04 02:31:25;;;;;;;26.47;12.03;;;;;;;;;;5015288;28;20109;-82
2023/01/04 02:34:20;;;;;;;25.40;12.37;;;;;;;;;;5019722;28;20037;-79
2023/01/04 02:37:07;;;;;;;22.67;11.07;;;;;;;;;;5026854;28;20041;-80
2023/01/04 02:39:54;;;;;;;25.07;11.47;;;;;;;;;;5034119;28;20054;-82
2023/01/04 02:46:23;;;;;;;23.50;10.63;;;;;;;;;;5032838;28;20430;-83
2023/01/04 02:51:35;;;;;;;21.47;10.80;;;;;;;;;;5010733;28;20088;-82
2023/01/04 02:54:17;;;;;;;21.63;10.50;;;;;;;;;;5017508;28;20069;-80
2023/01/04 02:56:58;;;;;;;20.90;11.38;;;;;;;;;;5033988;28;20025;-81
2023/01/04 02:59:31;;;;;;;22.70;9.47;;;;;;;;;;5035228;28;20095;-81
2023/01/04 03:08:07;;;;;;;19.60;10.07;;;;;;;;;;5035217;28;20704;-82
2023/01/04 03:10:52;;;;;;;19.40;10.10;;;;;;;;;;5032841;28;20057;-81
2023/01/04 03:13:36;;;;;;;20.67;9.10;;;;;;;;;;5031815;28;20025;-83
2023/01/04 03:16:16;;;;;;;21.00;10.43;;;;;;;;;;5032381;28;20129;-81
2023/01/04 03:18:45;;;;;;;18.80;9.10;;;;;;;;;;5031872;28;20078;-83
2023/01/04 03:21:14;;;;;;;21.13;9.50;;;;;;;;;;5030155;28;20457;-82
2023/01/04 03:50:09;;;;;;;19.37;8.30;;;;;;;;;;5041370;28;20269;-82
2023/01/04 03:52:36;;;;;;;18.53;8.00;;;;;;;;;;5042065;28;20144;-82
2023/01/04 03:55:05;;;;;;;15.23;8.43;;;;;;;;;;5036495;28;20029;-80
2023/01/04 03:57:31;;;;;;;15.57;8.37;;;;;;;;;;5035032;28;20456;-82
2023/01/04 04:00:03;;;;;;;15.20;8.10;;;;;;;;;;5028946;28;20041;-77
2023/01/04 04:02:30;;;;;;;16.80;8.45;;;;;;;;;;5030132;28;20354;-77
2023/01/04 04:10:24;;;;;;;17.30;9.13;;;;;;;;;;5030043;28;20040;-76
2023/01/04 04:12:51;;;;;;;23.20;9.03;;;;;;;;;;5028365;28;20029;-76
2023/01/04 04:15:17;;;;;;;17.33;8.47;;;;;;;;;;5029463;28;20418;-77
2023/01/04 04:17:43;;;;;;;13.53;7.03;;;;;;;;;;5028331;28;20441;-78
2023/01/04 04:20:10;;;;;;;19.27;9.07;;;;;;;;;;5027650;28;20037;-77
2023/01/04 04:22:35;;;;;;;13.40;8.33;;;;;;;;;;5028337;28;20055;-77
2023/01/04 04:25:01;;;;;;;15.20;7.70;;;;;;;;;;5028207;28;20026;-77
2023/01/04 04:27:26;;;;;;;20.47;8.53;;;;;;;;;;5027924;28;20022;-77
2023/01/04 04:29:52;;;;;;;16.13;7.93;;;;;;;;;;5029734;28;20557;-77
2023/01/04 04:32:17;;;;;;;16.60;7.23;;;;;;;;;;5027908;28;20033;-77
2023/01/04 04:34:43;;;;;;;16.20;7.60;;;;;;;;;;5028308;28;20025;-77
2023/01/04 04:37:08;;;;;;;15.87;8.13;;;;;;;;;;5028637;28;20031;-77
2023/01/04 04:39:34;;;;;;;16.10;7.87;;;;;;;;;;5029157;28;20057;-77
2023/01/04 04:41:59;;;;;;;13.47;7.63;;;;;;;;;;5027677;28;20130;-76
2023/01/04 04:44:25;;;;;;;15.07;7.97;;;;;;;;;;5027853;28;20059;-77
2023/01/04 04:46:50;;;;;;;19.33;8.47;;;;;;;;;;5029643;28;20029;-77
2023/01/04 04:49:17;;;;;;;22.73;8.63;;;;;;;;;;5027801;28;20460;-77
2023/01/04 04:51:44;;;;;;;18.50;8.83;;;;;;;;;;5029728;28;20082;-77
2023/01/04 04:54:13;;;;;;;16.13;8.67;;;;;;;;;;5029311;28;20442;-77
2023/01/04 04:56:38;;;;;;;17.53;7.57;;;;;;;;;;5027559;28;20029;-77
2023/01/04 04:59:05;;;;;;;13.27;7.83;;;;;;;;;;5027729;28;20486;-77
2023/01/04 05:01:31;;;;;;;16.40;7.40;;;;;;;;;;5029317;28;20048;-77
2023/01/04 05:03:56;;;;;;;16.97;7.50;;;;;;;;;;5028871;28;20550;-77
2023/01/04 05:06:22;;;;;;;19.93;8.13;;;;;;;;;;5027864;28;20021;-78
2023/01/04 05:08:48;;;;;;;18.97;8.60;;;;;;;;;;5029143;28;20106;-77
2023/01/04 05:11:13;;;;;;;14.37;7.07;;;;;;;;;;5027959;28;20424;-77
2023/01/04 05:13:39;;;;;;;20.73;9.33;;;;;;;;;;5029066;28;20128;-76
2023/01/04 05:16:06;;;;;;;15.80;9.10;;;;;;;;;;5027607;28;20021;-77
2023/01/04 05:18:32;;;;;;;11.80;6.73;;;;;;;;;;5027371;28;20030;-77
2023/01/04 05:20:57;;;;;;;17.03;6.83;;;;;;;;;;5027375;28;20402;-78
2023/01/04 05:23:23;;;;;;;17.37;6.77;;;;;;;;;;5027416;28;20025;-77
2023/01/04 05:26:00;;;;;;;15.93;7.17;;;;;;;;;;5027406;28;20089;-78
2023/01/04 05:28:25;;;;;;;15.50;7.47;;;;;;;;;;5027567;28;20179;-77
2023/01/04 05:30:52;;;;;;;16.13;7.80;;;;;;;;;;5028894;28;20643;-77
2023/01/04 05:33:31;;;;;;;17.13;9.00;;;;;;;;;;5026986;28;20079;-77
2023/01/04 05:35:59;;;;;;;17.70;8.07;;;;;;;;;;5026831;28;20458;-76
2023/01/04 05:38:25;;;;;;;15.80;7.47;;;;;;;;;;5013549;28;20561;-77
2023/01/04 05:40:51;;;;;;;12.87;6.63;;;;;;;;;;5007200;28;20050;-77
2023/01/04 05:43:17;;;;;;;15.97;7.43;;;;;;;;;;5007314;28;20030;-77
2023/01/04 05:45:47;;;;;;;14.63;6.87;;;;;;;;;;5007641;28;20430;-77
2023/01/04 05:48:12;;;;;;;16.47;7.77;;;;;;;;;;5009486;28;20026;-79
2023/01/04 05:50:38;;;;;;;15.83;7.80;;;;;;;;;;5013017;28;20115;-77
2023/01/04 05:53:05;;;;;;;17.17;8.83;;;;;;;;;;5026113;28;20022;-74
2023/01/04 05:55:34;;;;;;;13.03;7.30;;;;;;;;;;5029862;28;20381;-77
2023/01/04 05:57:59;;;;;;;14.80;7.87;;;;;;;;;;5025415;28;20025;-75
2023/01/04 06:00:25;;;;;;;18.13;6.70;;;;;;;;;;5031745;28;20155;-75
2023/01/04 06:02:51;;;;;;;13.83;7.03;;;;;;;;;;5031519;28;20025;-74
2023/01/04 06:05:17;;;;;;;10.87;6.20;;;;;;;;;;5032863;28;20320;-74
2023/01/04 06:07:42;;;;;;;13.03;8.37;;;;;;;;;;5030223;28;20122;-73
2023/01/04 06:10:10;;;;;;;13.90;7.40;;;;;;;;;;5028309;28;20039;-76
2023/01/04 06:12:36;;;;;;;13.30;7.13;;;;;;;;;;5031839;28;20025;-74
2023/01/04 06:15:03;;;;;;;11.23;7.87;;;;;;;;;;5030926;28;20144;-76
2023/01/04 06:17:28;;;;;;;13.17;6.67;;;;;;;;;;5014945;28;20033;-77
2023/01/04 06:19:54;;;;;;;15.53;5.90;;;;;;;;;;5030955;28;20026;-75
2023/01/04 06:22:20;;;;;;;11.30;6.17;;;;;;;;;;5041300;28;20028;-79
2023/01/04 06:24:46;;;;;;;15.60;7.13;;;;;;;;;;5041792;28;20116;-77
2023/01/04 06:27:11;;;;;;;14.00;7.30;;;;;;;;;;5032814;28;20418;-74
2023/01/04 06:29:37;;;;;;;13.17;7.33;;;;;;;;;;5029615;28;20051;-77
2023/01/04 06:32:02;;;;;;;15.33;6.53;;;;;;;;;;5032583;28;20437;-77
2023/01/04 06:34:28;;;;;;;10.53;5.80;;;;;;;;;;5032490;28;20026;-78
2023/01/04 06:36:53;;;;;;;16.53;9.17;;;;;;;;;;5032396;28;20033;-76
2023/01/04 06:39:19;;;;;;;21.43;7.93;;;;;;;;;;5029563;28;20517;-76
2023/01/04 06:41:45;;;;;;;23.00;7.37;;;;;;;;;;5029550;28;20040;-78
2023/01/04 06:44:10;;;;;;;21.43;8.30;;;;;;;;;;5030463;28;20055;-75
2023/01/04 06:46:37;;;;;;;21.57;8.80;;;;;;;;;;5021459;28;20049;-80
2023/01/04 06:49:03;;;;;;;27.13;9.87;;;;;;;;;;5018200;28;20370;-80
2023/01/04 06:51:29;;;;;;;19.50;7.60;;;;;;;;;;5033311;28;20100;-75
2023/01/04 06:53:55;;;;;;;14.33;7.33;;;;;;;;;;5028996;28;20462;-78
2023/01/04 06:56:20;;;;;;;17.33;6.27;;;;;;;;;;5028365;28;20028;-77
2023/01/04 06:58:46;;;;;;;15.30;6.17;;;;;;;;;;5026659;28;20104;-75
2023/01/04 07:01:12;;;;;;;11.87;7.10;;;;;;;;;;5029682;28;20116;-75
2023/01/04 07:03:39;;;;;;;12.13;6.77;;;;;;;;;;5010152;28;20528;-74
2023/01/04 07:06:05;;;;;;;12.50;5.80;;;;;;;;;;5028173;28;20029;-76
2023/01/04 07:08:32;;;;;;;11.00;6.77;;;;;;;;;;5026859;28;20516;-73
2023/01/04 07:10:57;;;;;;;13.77;6.43;;;;;;;;;;5029562;28;20037;-77
2023/01/04 07:13:23;;;;;;;18.60;6.77;;;;;;;;;;5020820;28;20040;-74
2023/01/04 07:15:50;;;;;;;9.57;5.53;;;;;;;;;;5023756;28;20708;-77
2023/01/04 07:18:15;;;;;;;11.03;5.90;;;;;;;;;;5023144;28;20032;-77
2023/01/04 07:20:42;;;;;;;15.40;6.00;;;;;;;;;;5021614;28;20037;-76
2023/01/04 07:23:08;;;;;;;13.07;5.60;;;;;;;;;;5032668;28;20033;-76
2023/01/04 07:25:36;;;;;;;11.53;5.30;;;;;;;;;;5028365;28;20025;-76
2023/01/04 07:28:02;;;;;;;10.97;5.93;;;;;;;;;;5029944;28;20021;-76
2023/01/04 07:30:28;;;;;;;12.97;6.83;;;;;;;;;;5032086;28;20728;-78
2023/01/04 07:32:55;;;;;;;11.33;6.03;;;;;;;;;;5009632;28;20052;-75
2023/01/04 07:35:21;;;;;;;9.13;5.50;;;;;;;;;;5032283;28;20025;-78
2023/01/04 07:37:47;;;;;;;19.03;7.07;;;;;;;;;;5012566;28;20409;-75
2023/01/04 07:40:13;;;;;;;11.27;6.80;;;;;;;;;;5027684;28;20049;-78
2023/01/04 07:42:39;;;;;;;12.83;6.17;;;;;;;;;;5030888;28;20017;-79
2023/01/04 07:45:05;;;;;;;11.70;7.23;;;;;;;;;;5023719;28;20111;-79
2023/01/04 07:47:31;;;;;;;8.70;5.27;;;;;;;;;;5027738;28;20093;-79
2023/01/04 07:49:56;;;;;;;10.93;6.07;;;;;;;;;;5027890;28;20447;-76
2023/01/04 07:52:23;;;;;;;9.47;5.00;;;;;;;;;;5024521;28;20481;-75
2023/01/04 07:54:49;;;;;;;15.77;8.20;;;;;;;;;;5033805;28;20045;-73
2023/01/04 07:57:14;;;;;;;9.80;6.20;;;;;;;;;;5029233;28;20096;-76
2023/01/04 07:59:40;;;;;;;17.47;6.43;;;;;;;;;;5026977;28;20045;-79
2023/01/04 08:02:12;;;;;;;13.80;6.53;;;;;;;;;;5024340;28;20680;-78
2023/01/04 08:04:37;;;;;;;9.38;5.22;;;;;;;;;;5027144;28;20112;-77
2023/01/04 08:07:03;;;;;;;15.23;6.07;;;;;;;;;;5025236;28;20128;-75
2023/01/04 08:09:28;;;;;;;12.20;6.23;;;;;;;;;;5023437;28;20025;-76
2023/01/04 08:11:54;;;;;;;11.90;6.03;;;;;;;;;;5029448;28;20029;-76
2023/01/04 08:14:19;;;;;;;12.73;6.00;;;;;;;;;;5023603;28;20585;-76
2023/01/04 08:16:46;;;;;;;12.70;6.27;;;;;;;;;;5024669;28;20426;-72
2023/01/04 08:19:19;;;;;;;10.63;5.97;;;;;;;;;;5025135;28;20168;-75
2023/01/04 08:21:45;;;;;;;8.83;6.00;;;;;;;;;;5027301;28;20037;-77
2023/01/04 08:24:20;;;;;;;17.07;6.17;;;;;;;;;;5023682;28;20613;-78
2023/01/04 08:26:46;;;;;;;7.83;5.60;;;;;;;;;;5023681;28;20060;-78
2023/01/04 08:29:12;;;;;;;11.03;5.93;;;;;;;;;;5022509;28;20445;-76
2023/01/04 08:31:38;;;;;;;17.67;6.93;;;;;;;;;;5019599;28;20075;-77
2023/01/04 08:34:07;;;;;;;11.17;6.23;;;;;;;;;;5026954;28;20715;-77
2023/01/04 08:36:35;;;;;;;15.40;7.37;;;;;;;;;;5019023;28;20071;-77
2023/01/04 08:39:04;;;;;;;17.10;6.57;;;;;;;;;;5022699;28;20260;-73
2023/01/04 08:41:49;;;;;;;14.07;6.43;;;;;;;;;;5021879;28;20300;-77
2023/01/04 08:44:19;;;;;;;15.10;7.97;;;;;;;;;;5018644;28;20060;-79
2023/01/04 08:46:45;;;;;;;10.10;5.53;;;;;;;;;;5020322;28;20041;-78
2023/01/04 08:49:10;;;;;;;11.80;5.53;;;;;;;;;;5007070;28;20034;-76
2023/01/04 08:51:36;;;;;;;10.40;5.70;;;;;;;;;;5027379;28;20037;-75
2023/01/04 08:54:01;;;;;;;17.53;6.50;;;;;;;;;;5026732;28;20462;-76
2023/01/04 08:56:27;;;;;;;14.20;6.93;;;;;;;;;;5025444;28;20454;-78
2023/01/04 08:58:53;;;;;;;12.77;6.80;;;;;;;;;;5022033;28;20760;-75
2023/01/04 09:01:19;;;;;;;10.47;5.90;;;;;;;;;;5022548;28;20033;-77
2023/01/04 09:03:44;;;;;;;11.30;6.33;;;;;;;;;;5021913;28;20052;-77
2023/01/04 09:06:13;;;;;;;8.87;5.87;;;;;;;;;;5020883;28;20195;-77
2023/01/04 09:08:41;;;;;;;10.90;6.17;;;;;;;;;;5011847;28;20037;-77
2023/01/04 09:11:08;;;;;;;17.67;6.83;;;;;;;;;;5018931;28;20182;-76
2023/01/04 09:13:37;;;;;;;15.60;7.23;;;;;;;;;;5009703;28;20122;-75
2023/01/04 09:16:06;;;;;;;17.63;8.63;;;;;;;;;;4992074;28;20076;-76
2023/01/04 09:18:33;;;;;;;11.37;6.23;;;;;;;;;;5020989;28;20026;-78
2023/01/04 09:21:03;;;;;;;9.47;6.47;;;;;;;;;;5004619;28;20403;-75
2023/01/04 09:23:32;;;;;;;13.83;7.00;;;;;;;;;;5025666;28;20105;-78
2023/01/04 09:25:58;;;;;;;11.33;5.93;;;;;;;;;;5027685;28;20513;-76
2023/01/04 09:28:25;;;;;;;11.27;6.50;;;;;;;;;;5027762;28;20051;-76
2023/01/04 09:30:50;;;;;;;10.23;6.33;;;;;;;;;;5003783;28;20037;-77
2023/01/04 09:33:16;;;;;;;9.97;6.27;;;;;;;;;;5023747;28;20041;-76
2023/01/04 09:35:41;;;;;;;13.90;6.47;;;;;;;;;;5021096;28;20083;-75
2023/01/04 09:38:07;;;;;;;12.03;5.77;;;;;;;;;;5022611;28;20083;-77
2023/01/04 09:40:45;;;;;;;8.93;5.57;;;;;;;;;;5017081;28;20049;-77
2023/01/04 09:43:19;;;;;;;12.53;6.90;;;;;;;;;;5023712;28;20029;-78
2023/01/04 09:45:48;;;;;;;14.27;6.70;;;;;;;;;;5020337;28;20037;-77
2023/01/04 09:48:19;;;;;;;11.07;5.60;;;;;;;;;;5025925;28;20088;-74
2023/01/04 09:50:56;;;;;;;11.83;5.70;;;;;;;;;;5018598;28;20025;-74
2023/01/04 09:53:44;;;;;;;11.00;5.50;;;;;;;;;;5021076;28;20099;-77
2023/01/04 09:56:25;;;;;;;9.43;6.00;;;;;;;;;;5033937;28;20029;-76
2023/01/04 09:58:53;;;;;;;11.37;6.30;;;;;;;;;;5019105;28;20029;-76
2023/01/04 10:01:21;;;;;;;10.10;5.97;;;;;;;;;;5022574;28;20038;-75
2023/01/04 10:04:28;;;;;;;11.03;5.40;;;;;;;;;;5026320;28;20143;-75
2023/01/04 10:06:54;;;;;;;12.10;5.63;;;;;;;;;;5028091;28;20051;-77
2023/01/04 10:09:20;;;;;;;14.90;6.00;;;;;;;;;;5022972;28;20065;-78
2023/01/04 10:11:48;;;;;;;12.77;6.33;;;;;;;;;;5027150;28;20486;-78
2023/01/04 10:14:33;;;;;;;10.30;5.67;;;;;;;;;;5027272;28;20040;-77
2023/01/04 10:17:36;;;;;;;8.80;5.33;;;;;;;;;;5031803;28;20029;-76
2023/01/04 10:20:18;;;;;;;;;;;;;;;;;;5020697;28;20652;-77
2023/01/04 10:22:46;;;;;;;8.35;5.07;;;;;;;;;;5023708;28;20359;-74
2023/01/04 10:25:40;;;;;;;13.57;5.70;;;;;;;;;;5021164;28;20034;-76
2023/01/04 10:28:14;;;;;;;15.37;6.00;;;;;;;;;;5027925;28;20041;-77
2023/01/04 10:31:12;;;;;;;12.50;5.77;;;;;;;;;;5018000;28;20061;-78
2023/01/04 10:34:11;;;;;;;14.73;6.20;;;;;;;;;;5022710;28;20076;-75
2023/01/04 10:36:36;;;;;;;12.10;6.17;;;;;;;;;;5019885;28;20033;-76
2023/01/04 10:39:11;;;;;;;13.50;5.57;;;;;;;;;;5021242;28;20473;-78
2023/01/04 10:41:42;;;;;;;12.30;5.80;;;;;;;;;;5028481;28;20041;-81
2023/01/04 10:44:25;;;;;;;14.15;6.20;;;;;;;;;;5028646;28;20483;-77
2023/01/04 10:47:15;;;;;;;9.43;5.50;;;;;;;;;;5030168;28;20021;-78
2023/01/04 10:49:51;;;;;;;11.63;5.37;;;;;;;;;;5015797;28;20124;-78
2023/01/04 10:52:22;;;;;;;8.67;5.37;;;;;;;;;;5028178;28;20112;-78
2023/01/04 10:54:58;;;;;;;14.73;6.67;;;;;;;;;;5030100;28;20036;-78
2023/01/04 10:57:35;;;;;;;13.47;5.53;;;;;;;;;;5022881;28;20041;-78
2023/01/04 11:00:12;;;;;;;14.40;6.73;;;;;;;;;;5024298;28;20481;-79
2023/01/04 11:03:25;;;;;;;9.60;6.10;;;;;;;;;;5032783;28;20049;-79
2023/01/04 11:06:15;;;;;;;12.30;7.67;;;;;;;;;;5022531;28;20095;-78
2023/01/04 11:08:49;;;;;;;16.87;6.80;;;;;;;;;;5024196;28;20032;-77
2023/01/04 11:11:21;;;;;;;13.30;6.17;;;;;;;;;;5025521;28;20039;-78
2023/01/04 11:13:48;;;;;;;9.52;5.45;;;;;;;;;;5027525;28;20545;-77
2023/01/04 11:16:14;;;;;;;11.23;5.80;;;;;;;;;;5027739;28;20053;-78
2023/01/04 11:18:42;;;;;;;11.00;5.50;;;;;;;;;;5023059;28;20131;-76
2023/01/04 11:21:13;;;;;;;11.03;6.23;;;;;;;;;;5022899;28;20115;-77
2023/01/04 11:23:39;;;;;;;8.95;5.30;;;;;;;;;;5028646;28;20052;-79
2023/01/04 11:26:18;;;;;;;14.33;6.17;;;;;;;;;;5029172;28;20041;-78
2023/01/04 11:28:52;;;;;;;24.13;8.60;;;;;;;;;;5024373;28;20057;-77
2023/01/04 11:31:49;;;;;;;14.63;7.00;;;;;;;;;;5025948;28;20064;-73
2023/01/04 11:34:16;;;;;;;12.30;6.03;;;;;;;;;;5024919;28;20120;-77
2023/01/04 11:36:46;;;;;;;14.77;6.70;;;;;;;;;;5026556;28;20021;-76
2023/01/04 11:39:23;;;;;;;12.23;6.37;;;;;;;;;;5022392;28;20128;-75
2023/01/04 11:42:05;;;;;;;17.73;8.87;;;;;;;;;;5025622;28;20026;-78
2023/01/04 11:44:31;;;;;;;8.77;5.90;;;;;;;;;;5019861;28;20036;-76
2023/01/04 11:47:18;;;;;;;10.87;5.23;;;;;;;;;;5025444;28;20187;-77
2023/01/04 11:49:44;;;;;;;8.47;4.87;;;;;;;;;;5022287;28;20037;-82
2023/01/04 11:52:27;;;;;;;9.37;5.60;;;;;;;;;;5010858;28;20502;-76
2023/01/04 11:54:53;;;;;;;9.35;5.13;;;;;;;;;;5023671;28;20119;-75
2023/01/04 11:57:19;;;;;;;18.10;6.23;;;;;;;;;;5021619;28;20124;-77
2023/01/04 12:00:05;;;;;;;7.97;4.97;;;;;;;;;;5025130;28;20497;-75
2023/01/04 12:02:30;;;;;;;13.20;5.67;;;;;;;;;;5023404;28;20048;-75
2023/01/04 12:04:57;;;;;;;9.43;4.80;;;;;;;;;;5025854;28;20481;-80
2023/01/04 12:07:34;;;;;;;8.70;5.07;;;;;;;;;;5026967;28;20200;-78
2023/01/04 12:10:11;;;;;;;7.57;4.50;;;;;;;;;;5018855;28;20033;-77
2023/01/04 12:12:40;;;;;;;8.47;4.27;;;;;;;;;;5024353;28;20092;-76
2023/01/04 12:15:20;;;;;;;6.03;3.57;;;;;;;;;;5027814;28;20513;-76
2023/01/04 12:17:49;;;;;;;10.18;4.32;;;;;;;;;;5027932;28;20025;-75
2023/01/04 12:20:18;;;;;;;5.57;3.50;;;;;;;;;;5021924;28;20029;-76
2023/01/04 12:22:46;;;;;;;7.37;3.70;;;;;;;;;;5017208;28;20049;-77
2023/01/04 12:25:38;;;;;;;9.03;3.93;;;;;;;;;;5021631;28;20048;-78
2023/01/04 12:28:04;;;;;;;8.13;3.40;;;;;;;;;;5024213;28;20045;-76
2023/01/04 12:30:35;;;;;;;6.47;3.00;;;;;;;;;;5018565;28;20056;-74
2023/01/04 12:33:29;;;;;;;9.70;3.87;;;;;;;;;;5023993;28;20048;-78
2023/01/04 12:36:14;;;;;;;6.53;2.87;;;;;;;;;;5022517;28;20025;-77
2023/01/04 12:38:58;;;;;;;11.20;3.53;;;;;;;;;;5023016;28;20035;-76
2023/01/04 12:41:32;;;;;;;4.40;2.70;;;;;;;;;;5025374;28;20077;-76
2023/01/04 12:44:22;;;;;;;7.40;3.10;;;;;;;;;;5023715;28;20234;-77
2023/01/04 12:49:44;;;;;;;6.10;2.70;;;;;;;;;;5023780;28;20095;-77
2023/01/04 12:52:12;;;;;;;4.87;2.47;;;;;;;;;;5022685;28;20026;-77
2023/01/04 12:55:02;;;;;;;3.57;2.40;;;;;;;;;;5023120;28;20040;-78
2023/01/04 12:57:36;;;;;;;5.07;3.17;;;;;;;;;;5006313;28;20454;-79
2023/01/04 13:00:03;;;;;;;9.10;3.70;;;;;;;;;;5019119;28;20716;-78
2023/01/04 13:02:30;;;;;;;4.83;2.93;;;;;;;;;;5026102;28;20055;-78
2023/01/04 13:05:01;;;;;;;4.40;2.73;;;;;;;;;;5021713;28;20060;-77
2023/01/04 13:07:30;;;;;;;5.70;2.67;;;;;;;;;;5023368;28;20441;-78
2023/01/04 13:10:12;;;;;;;7.27;2.87;;;;;;;;;;5019111;28;20025;-77
2023/01/04 13:13:00;;;;;;;5.38;2.95;;;;;;;;;;5028024;28;20508;-80
2023/01/04 13:16:07;;;;;;;3.77;2.40;;;;;;;;;;5028116;28;20077;-79
2023/01/04 13:18:46;;;;;;;4.80;3.20;;;;;;;;;;5016685;28;20026;-78
2023/01/04 13:21:32;;;;;;;4.20;2.37;;;;;;;;;;5023332;28;20458;-76
2023/01/04 13:24:04;;;;;;;4.73;2.70;;;;;;;;;;5022857;28;20124;-76
2023/01/04 13:26:42;;;;;;;5.75;2.88;;;;;;;;;;5024765;28;20115;-80
2023/01/04 13:29:20;;;;;;;4.33;2.70;;;;;;;;;;5005546;28;20789;-83
2023/01/04 13:31:54;;;;;;;6.13;2.53;;;;;;;;;;5028597;28;20025;-81
2023/01/04 13:34:47;;;;;;;5.77;3.40;;;;;;;;;;5026042;28;20235;-75
2023/01/04 13:37:22;;;;;;;6.47;2.80;;;;;;;;;;5001786;28;20120;-75
2023/01/04 13:39:50;;;;;;;5.50;3.27;;;;;;;;;;5015665;28;20457;-77
2023/01/04 13:42:26;;;;;;;6.63;3.00;;;;;;;;;;5024932;28;20064;-75
2023/01/04 13:45:01;;;;;;;4.23;2.57;;;;;;;;;;5024174;28;20029;-79
2023/01/04 13:47:35;;;;;;;3.53;3.13;;;;;;;;;;5024833;28;20037;-77
2023/01/04 13:50:03;;;;;;;5.50;3.20;;;;;;;;;;5017945;28;20022;-79
2023/01/04 13:52:29;;;;;;;5.50;2.67;;;;;;;;;;5005713;28;20056;-77
2023/01/04 13:55:09;;;;;;;4.90;2.73;;;;;;;;;;5032008;28;20048;-77
2023/01/04 13:57:35;;;;;;;6.60;2.97;;;;;;;;;;5023291;28;20101;-76
2023/01/04 14:00:06;;;;;;;4.97;2.93;;;;;;;;;;5021340;28;20436;-75
2023/01/04 14:02:34;;;;;;;6.27;3.20;;;;;;;;;;5021254;28;20075;-76
2023/01/04 14:05:02;;;;;;;3.93;2.90;;;;;;;;;;5023279;28;20060;-76
2023/01/04 14:07:28;;;;;;;5.23;2.90;;;;;;;;;;5024190;28;20048;-77
2023/01/04 14:09:59;;;;;;;4.57;3.20;;;;;;;;;;5023836;28;20026;-77
2023/01/04 14:12:28;;;;;;;5.73;3.77;;;;;;;;;;5017839;28;20037;-79
2023/01/04 14:15:37;;;;;;;6.17;3.23;;;;;;;;;;5028027;28;20099;-79
2023/01/04 14:18:26;;;;;;;6.00;3.07;;;;;;;;;;5006408;28;20133;-77
2023/01/04 14:20:58;;;;;;;5.40;3.50;;;;;;;;;;5018262;28;20025;-81
2023/01/04 14:23:37;;;;;;;6.60;3.20;;;;;;;;;;5027352;28;20047;-76
2023/01/04 14:26:03;;;;;;;5.63;3.33;;;;;;;;;;5029943;28;20052;-74
2023/01/04 14:28:38;;;;;;;5.20;3.43;;;;;;;;;;5024220;28;20460;-77
2023/01/04 14:31:05;;;;;;;6.30;3.33;;;;;;;;;;5023331;28;20044;-76
2023/01/04 14:33:44;;;;;;;5.33;4.00;;;;;;;;;;5029284;28;20033;-76
2023/01/04 14:36:31;;;;;;;4.05;2.80;;;;;;;;;;5025927;28;20098;-80
2023/01/04 14:39:05;;;;;;;5.70;3.40;;;;;;;;;;5024088;28;20034;-74
2023/01/04 14:42:03;;;;;;;4.27;2.80;;;;;;;;;;5026563;28;20512;-78
2023/01/04 14:44:39;;;;;;;5.57;3.30;;;;;;;;;;5022809;28;20045;-79
2023/01/04 14:47:09;;;;;;;6.97;4.77;;;;;;;;;;5028859;28;20407;-77
2023/01/04 14:49:35;;;;;;;8.30;3.60;;;;;;;;;;5025108;28;20074;-77
2023/01/04 14:52:08;;;;;;;8.75;3.28;;;;;;;;;;5025724;28;20512;-75
2023/01/04 14:54:37;;;;;;;8.90;4.13;;;;;;;;;;5025823;28;20099;-73
2023/01/04 14:57:09;;;;;;;4.90;3.70;;;;;;;;;;5024606;28;20036;-77
2023/01/04 14:59:36;;;;;;;4.80;3.20;;;;;;;;;;5023980;28;20029;-80
2023/01/04 15:02:05;;;;;;;5.70;3.13;;;;;;;;;;5026143;28;20096;-77
2023/01/04 15:04:32;;;;;;;4.83;3.17;;;;;;;;;;5025996;28;20025;-77
2023/01/04 15:07:01;;;;;;;7.33;3.30;;;;;;;;;;5025177;28;20057;-78
2023/01/04 15:09:28;;;;;;;5.80;3.10;;;;;;;;;;5022498;28;20026;-75
2023/01/04 15:11:54;;;;;;;5.47;3.50;;;;;;;;;;5027687;28;20116;-78
2023/01/04 15:14:21;;;;;;;4.87;3.00;;;;;;;;;;5026762;28;20494;-78
2023/01/04 15:16:47;;;;;;;4.47;3.20;;;;;;;;;;5025643;28;20054;-76
2023/01/04 15:19:14;;;;;;;7.93;3.47;;;;;;;;;;5016270;28;20051;-81
2023/01/04 15:21:40;;;;;;;6.87;3.93;;;;;;;;;;5025670;28;20124;-79
2023/01/04 15:24:06;;;;;;;5.17;3.30;;;;;;;;;;5026608;28;20112;-77
2023/01/04 15:26:32;;;;;;;6.63;3.22;;;;;;;;;;5026856;28;20028;-76
2023/01/04 15:29:03;;;;;;;6.33;3.70;;;;;;;;;;5022482;28;20041;-78
2023/01/04 15:31:29;;;;;;;7.27;4.67;;;;;;;;;;5028467;28;20816;-78
2023/01/04 15:33:55;;;;;;;6.40;3.60;;;;;;;;;;5028976;28;20061;-79
2023/01/04 15:36:21;;;;;;;5.23;3.33;;;;;;;;;;5021661;28;20116;-80
2023/01/04 15:38:47;;;;;;;5.03;3.37;;;;;;;;;;5006949;28;20029;-75
2023/01/04 15:44:08;;;;;;;8.20;3.43;;;;;;;;;;5024475;28;20052;-76